createdAt,value
2019-04-27T04:32:42.445Z,5.17
2019-04-27T04:44:22.017Z,4.77
2019-04-27T04:52:52.431Z,4.53
2019-04-27T05:19:33.130Z,4.27
2019-04-27T05:22:22.522Z,4.90
2019-04-27T05:25:01.541Z,3.90
2019-04-27T05:39:24.336Z,3.23
2019-04-27T05:41:59.527Z,4.03
2019-04-27T05:44:51.522Z,3.37
2019-04-27T05:47:24.354Z,3.70
2019-04-27T05:49:56.492Z,3.90
2019-04-27T06:11:52.541Z,3.03
2019-04-27T06:14:21.419Z,2.90
2019-04-27T06:16:51.342Z,2.90
2019-04-27T07:19:07.247Z,2.00
2019-04-27T07:28:04.093Z,1.60
2019-04-27T07:40:24.807Z,1.50
2019-04-27T07:42:55.228Z,1.90
2019-04-27T07:45:29.682Z,1.40
2019-04-27T07:48:04.345Z,1.30
2019-04-27T07:50:43.268Z,1.13
2019-04-27T07:56:25.624Z,1.10
2019-04-27T07:58:54.529Z,1.50
2019-04-27T08:01:29.373Z,1.25
2019-04-27T08:03:59.063Z,1.25
2019-04-27T08:06:28.946Z,1.42
2019-04-27T08:08:59.929Z,1.00
2019-04-27T12:24:37.594Z,1.27
2019-04-27T12:27:07.654Z,2.07
2019-04-27T12:29:55.734Z,2.40
2019-04-27T12:32:25.740Z,2.00
2019-04-27T12:34:56.434Z,2.00
2019-04-27T12:37:26.697Z,3.70
2019-04-27T12:39:57.597Z,2.67
2019-04-27T12:42:26.050Z,1.80
2019-04-27T12:44:54.565Z,1.97
2019-04-27T12:53:02.957Z,1.13
2019-04-27T12:55:36.481Z,1.13
2019-04-27T12:58:19.192Z,1.00
2019-04-27T13:00:54.979Z,1.00
2019-04-27T13:03:23.680Z,0.90
2019-04-27T13:05:52.446Z,1.03
2019-04-27T13:25:28.652Z,1.10
2019-04-27T13:28:48.391Z,0.70
2019-04-27T13:34:52.012Z,0.90
2019-04-27T13:37:37.053Z,0.80
2019-04-27T13:40:27.904Z,0.80
2019-04-27T13:46:11.790Z,0.80
2019-04-27T13:49:04.676Z,0.73
2019-04-27T13:51:45.757Z,0.90
2019-04-27T13:54:26.026Z,1.27
2019-04-27T13:57:12.538Z,1.00
2019-04-27T13:59:21.868Z,0.90
2019-04-27T14:01:50.652Z,1.40
2019-04-27T14:04:19.844Z,1.37
2019-04-27T14:06:49.198Z,1.10
2019-04-27T14:12:40.815Z,1.20
2019-04-27T14:15:40.910Z,1.00
2019-04-27T14:31:43.043Z,3.53
2019-04-27T14:37:22.054Z,8.83
2019-04-27T14:39:50.768Z,3.93
2019-04-27T14:42:19.627Z,6.67
2019-04-27T14:44:48.954Z,2.63
2019-04-27T14:47:39.882Z,1.17
2019-04-27T14:50:34.227Z,1.60
2019-04-27T14:56:00.972Z,1.73
2019-04-27T14:59:01.289Z,2.60
2019-04-27T15:01:29.988Z,3.40
2019-04-27T15:04:07.236Z,6.10
2019-04-27T15:06:38.944Z,11.73
2019-04-27T15:09:08.277Z,2.73
2019-04-27T15:11:41.119Z,4.87
2019-04-27T15:14:11.875Z,5.83
2019-04-27T15:16:49.737Z,11.13
2019-04-27T15:19:29.711Z,6.10
2019-04-27T15:22:02.185Z,2.63
2019-04-27T15:24:38.164Z,1.20
2019-04-27T15:30:43.979Z,2.47
2019-04-27T15:33:54.416Z,1.57
2019-04-27T15:36:39.523Z,1.53
2019-04-27T15:39:26.862Z,1.30
2019-04-27T15:42:07.902Z,0.90
2019-04-27T15:44:32.353Z,1.17
2019-04-27T15:47:08.491Z,1.23
2019-04-27T15:49:45.015Z,0.70
2019-04-27T15:55:34.630Z,0.90
2019-04-27T16:06:38.487Z,1.00
2019-04-27T17:42:55.120Z,1.80
2019-04-27T20:41:47.917Z,1.63
2019-04-27T20:44:22.831Z,2.07
2019-04-27T20:47:06.771Z,1.90
2019-04-27T20:49:48.085Z,1.80
2019-04-27T21:01:14.908Z,1.40
2019-04-27T21:04:01.010Z,1.40
2019-04-27T21:06:32.713Z,1.33
2019-04-27T21:09:04.020Z,1.50
2019-04-27T21:11:48.709Z,1.60
2019-04-27T21:14:21.690Z,1.33
2019-04-27T21:16:51.801Z,1.33
2019-04-27T21:19:21.086Z,1.80
2019-04-27T21:30:24.450Z,2.33
